Time;durP1;ratioP1;P1;durP2;ratioP2;P2;SDS_P1;SDS_P2;PMS_P1;PMS_P2;Temp;Humidity;BMP_temperature;BMP_pressure;BME280_temperature;BME280_humidity;BME280_pressure;Samples;Min_cycle;Max_cycle;Signal;HPM_P1;HPM_P2
2022/04/06 00:00:13;;;;;;;37.30;21.77;;;;;;;;;;5111718;28;20024;-40
2022/04/06 00:02:40;;;;;;;38.50;20.08;;;;;;;;;;5093396;28;20031;-42
2022/04/06 00:05:12;;;;;;;34.40;19.65;;;;;;;;;;5094269;28;20060;-42
2022/04/06 00:07:39;;;;;;;34.20;17.88;;;;;;;;;;5094380;28;20035;-42
2022/04/06 00:10:07;;;;;;;34.75;19.35;;;;;;;;;;5091899;28;20463;-41
2022/04/06 00:12:34;;;;;;;26.33;15.90;;;;;;;;;;5093612;28;20885;-42
2022/04/06 00:15:02;;;;;;;29.15;17.30;;;;;;;;;;5094075;28;20028;-39
2022/04/06 00:17:31;;;;;;;40.08;21.25;;;;;;;;;;5098209;28;20020;-43
2022/04/06 00:19:57;;;;;;;41.05;19.67;;;;;;;;;;5114751;28;20051;-41
2022/04/06 00:22:23;;;;;;;34.25;18.67;;;;;;;;;;5113354;28;20103;-42
2022/04/06 00:24:50;;;;;;;36.92;20.38;;;;;;;;;;5114435;28;20553;-43
2022/04/06 00:27:16;;;;;;;30.02;16.52;;;;;;;;;;5114275;28;20051;-45
2022/04/06 00:29:42;;;;;;;32.83;17.85;;;;;;;;;;5114219;28;20073;-44
2022/04/06 00:32:08;;;;;;;34.95;19.35;;;;;;;;;;5114534;28;20031;-41
2022/04/06 00:37:19;;;;;;;37.85;19.08;;;;;;;;;;5114630;28;20085;-46
2022/04/06 00:39:45;;;;;;;33.10;19.42;;;;;;;;;;5114246;28;20507;-41
2022/04/06 00:42:11;;;;;;;40.22;19.48;;;;;;;;;;5114015;28;20027;-42
2022/04/06 00:44:37;;;;;;;31.27;18.70;;;;;;;;;;5114165;28;20551;-45
2022/04/06 00:47:04;;;;;;;35.50;18.80;;;;;;;;;;5113906;28;20475;-46
2022/04/06 00:49:30;;;;;;;38.63;19.92;;;;;;;;;;5114058;28;20498;-40
2022/04/06 00:51:56;;;;;;;36.10;21.67;;;;;;;;;;5113878;28;20524;-46
2022/04/06 00:54:23;;;;;;;39.22;22.58;;;;;;;;;;5114194;28;20134;-41
2022/04/06 00:56:53;;;;;;;37.97;21.02;;;;;;;;;;5113611;28;20050;-43
2022/04/06 00:59:20;;;;;;;38.28;20.27;;;;;;;;;;5114267;28;20024;-43
2022/04/06 01:01:47;;;;;;;36.83;19.30;;;;;;;;;;5113800;28;20023;-43
2022/04/06 01:04:13;;;;;;;39.33;19.50;;;;;;;;;;5113706;28;20368;-41
2022/04/06 01:06:39;;;;;;;34.67;18.50;;;;;;;;;;5112322;28;20020;-45
2022/04/06 01:09:05;;;;;;;37.20;17.85;;;;;;;;;;5113756;28;20016;-39
2022/04/06 01:11:32;;;;;;;34.67;18.77;;;;;;;;;;5113663;28;20098;-41
2022/04/06 01:13:58;;;;;;;34.10;19.23;;;;;;;;;;5113956;28;20503;-40
2022/04/06 01:16:24;;;;;;;38.47;20.50;;;;;;;;;;5113950;28;20035;-41
2022/04/06 01:18:52;;;;;;;39.63;20.95;;;;;;;;;;5113621;28;20383;-40
2022/04/06 01:21:18;;;;;;;39.15;21.33;;;;;;;;;;5113728;28;20040;-41
2022/04/06 01:23:45;;;;;;;35.22;20.27;;;;;;;;;;5116002;28;20043;-43
2022/04/06 01:26:12;;;;;;;36.05;19.50;;;;;;;;;;5117949;28;20167;-43
2022/04/06 01:28:39;;;;;;;35.40;20.88;;;;;;;;;;5117696;28;20034;-46
2022/04/06 01:31:05;;;;;;;43.65;21.10;;;;;;;;;;5101670;28;20065;-42
2022/04/06 01:33:31;;;;;;;38.97;21.65;;;;;;;;;;5097461;28;20024;-44
2022/04/06 01:35:58;;;;;;;44.13;21.48;;;;;;;;;;5097583;28;20454;-44
2022/04/06 01:38:24;;;;;;;43.33;23.77;;;;;;;;;;5096915;28;20031;-43
2022/04/06 01:40:53;;;;;;;47.63;24.85;;;;;;;;;;5097285;28;20024;-41
2022/04/06 01:43:20;;;;;;;44.58;22.70;;;;;;;;;;5097140;28;20050;-47
2022/04/06 01:45:46;;;;;;;40.80;21.42;;;;;;;;;;5095807;28;20019;-41
2022/04/06 01:48:14;;;;;;;40.70;21.42;;;;;;;;;;5097058;28;20108;-42
2022/04/06 01:53:25;;;;;;;36.03;19.83;;;;;;;;;;5138030;27;20034;-42
2022/04/06 01:55:52;;;;;;;43.60;21.38;;;;;;;;;;5137762;27;20026;-44
2022/04/06 01:58:18;;;;;;;33.75;18.65;;;;;;;;;;5137842;27;20390;-44
2022/04/06 02:00:44;;;;;;;35.17;20.10;;;;;;;;;;5137553;27;20531;-43
2022/04/06 02:03:12;;;;;;;39.83;22.23;;;;;;;;;;5137561;27;20420;-44
2022/04/06 02:05:38;;;;;;;46.78;23.63;;;;;;;;;;5137647;27;20053;-43
2022/04/06 02:08:05;;;;;;;37.83;19.50;;;;;;;;;;5137349;27;20496;-42
2022/04/06 02:10:31;;;;;;;34.25;17.65;;;;;;;;;;5118115;27;20100;-42
2022/04/06 02:12:58;;;;;;;28.55;15.77;;;;;;;;;;5137381;27;20450;-45
2022/04/06 02:15:25;;;;;;;36.75;20.25;;;;;;;;;;5137370;27;20034;-43
2022/04/06 02:17:51;;;;;;;56.95;28.60;;;;;;;;;;5137341;27;20012;-43
2022/04/06 02:20:18;;;;;;;75.72;33.85;;;;;;;;;;5137324;27;20407;-45
2022/04/06 02:22:44;;;;;;;77.10;36.85;;;;;;;;;;5137272;27;20091;-41
2022/04/06 02:25:12;;;;;;;88.00;41.08;;;;;;;;;;5137195;27;20477;-43
2022/04/06 02:27:48;;;;;;;72.10;33.33;;;;;;;;;;5137058;27;20070;-50
2022/04/06 02:30:15;;;;;;;81.90;39.53;;;;;;;;;;5137263;27;20026;-44
2022/04/06 02:32:41;;;;;;;64.07;31.77;;;;;;;;;;5136948;27;20027;-46
2022/04/06 02:35:07;;;;;;;62.70;29.00;;;;;;;;;;5135977;27;20462;-42
2022/04/06 02:37:33;;;;;;;53.42;26.48;;;;;;;;;;5136893;27;20023;-44
2022/04/06 02:39:59;;;;;;;43.13;21.63;;;;;;;;;;5135585;27;20027;-45
2022/04/06 02:42:25;;;;;;;45.67;22.50;;;;;;;;;;5137104;27;20020;-45
2022/04/06 02:44:52;;;;;;;38.00;20.60;;;;;;;;;;5135084;27;20099;-42
2022/04/06 02:47:18;;;;;;;39.70;20.10;;;;;;;;;;5125706;27;20024;-46
2022/04/06 02:49:44;;;;;;;38.90;20.30;;;;;;;;;;5116260;28;20082;-42
2022/04/06 02:52:10;;;;;;;35.58;19.98;;;;;;;;;;5116501;28;20463;-43
2022/04/06 02:54:36;;;;;;;46.00;22.10;;;;;;;;;;5116247;28;20364;-44
2022/04/06 02:57:02;;;;;;;36.47;20.13;;;;;;;;;;5116254;28;20020;-45
2022/04/06 02:59:28;;;;;;;36.90;19.50;;;;;;;;;;5116193;28;20498;-43
2022/04/06 03:01:54;;;;;;;39.60;20.52;;;;;;;;;;5116260;28;20157;-43
2022/04/06 03:04:21;;;;;;;38.30;20.90;;;;;;;;;;5116080;28;20118;-45
2022/04/06 03:06:47;;;;;;;40.83;22.58;;;;;;;;;;5116174;28;20020;-42
2022/04/06 03:09:13;;;;;;;47.65;20.73;;;;;;;;;;5115880;28;20101;-45
2022/04/06 03:11:39;;;;;;;35.92;19.65;;;;;;;;;;5116022;28;20462;-46
2022/04/06 03:14:05;;;;;;;42.53;22.25;;;;;;;;;;5115786;28;20024;-44
2022/04/06 03:16:31;;;;;;;36.55;21.20;;;;;;;;;;5115590;28;20047;-43
2022/04/06 03:18:57;;;;;;;41.22;20.60;;;;;;;;;;5115914;28;20035;-52
2022/04/06 03:21:23;;;;;;;38.38;20.88;;;;;;;;;;5115817;28;20102;-49
2022/04/06 03:23:50;;;;;;;39.78;19.80;;;;;;;;;;5115718;28;20047;-49
2022/04/06 03:26:18;;;;;;;34.13;19.45;;;;;;;;;;5115542;28;20020;-42
2022/04/06 03:28:44;;;;;;;36.63;19.38;;;;;;;;;;5115804;28;20031;-42
2022/04/06 03:31:10;;;;;;;41.72;22.17;;;;;;;;;;5115543;28;20024;-46
2022/04/06 03:33:36;;;;;;;40.45;20.13;;;;;;;;;;5115578;28;20563;-44
2022/04/06 03:36:03;;;;;;;37.97;20.40;;;;;;;;;;5115498;28;20047;-43
2022/04/06 03:38:30;;;;;;;42.95;22.58;;;;;;;;;;5095503;28;20038;-43
2022/04/06 03:40:56;;;;;;;42.35;22.45;;;;;;;;;;5094983;28;20052;-43
2022/04/06 03:43:23;;;;;;;41.45;24.25;;;;;;;;;;5094953;28;20438;-44
2022/04/06 03:45:49;;;;;;;44.50;23.10;;;;;;;;;;5094621;28;20031;-45
2022/04/06 03:48:15;;;;;;;41.55;23.13;;;;;;;;;;5094759;28;20429;-44
2022/04/06 03:50:41;;;;;;;45.97;23.45;;;;;;;;;;5118764;27;20091;-42
2022/04/06 03:53:07;;;;;;;43.85;23.95;;;;;;;;;;5135321;27;20489;-43
2022/04/06 03:55:33;;;;;;;43.60;23.10;;;;;;;;;;5134664;27;20015;-41
2022/04/06 03:57:59;;;;;;;47.22;25.95;;;;;;;;;;5135347;27;20027;-41
2022/04/06 04:00:25;;;;;;;50.20;25.48;;;;;;;;;;5135448;27;20109;-42
2022/04/06 04:02:51;;;;;;;47.90;25.45;;;;;;;;;;5135336;27;20023;-42
2022/04/06 04:05:18;;;;;;;43.50;23.92;;;;;;;;;;5135330;27;20450;-42
2022/04/06 04:07:44;;;;;;;60.50;28.65;;;;;;;;;;5135151;27;20062;-41
2022/04/06 04:10:11;;;;;;;57.47;26.23;;;;;;;;;;5135122;27;20462;-44
2022/04/06 04:12:39;;;;;;;51.00;26.45;;;;;;;;;;5135116;27;20026;-42
2022/04/06 04:15:05;;;;;;;50.67;26.80;;;;;;;;;;5135082;27;20023;-43
2022/04/06 04:17:31;;;;;;;50.97;25.85;;;;;;;;;;5135586;27;20031;-41
2022/04/06 04:19:57;;;;;;;45.00;24.85;;;;;;;;;;5135121;27;20440;-42
2022/04/06 04:22:23;;;;;;;45.92;24.92;;;;;;;;;;5135101;27;20116;-42
2022/04/06 04:24:49;;;;;;;52.25;25.70;;;;;;;;;;5134984;27;20051;-42
2022/04/06 04:27:18;;;;;;;52.40;26.55;;;;;;;;;;5135003;27;20019;-42
2022/04/06 04:29:45;;;;;;;51.13;27.75;;;;;;;;;;5134742;27;20102;-42
2022/04/06 04:32:11;;;;;;;55.75;28.20;;;;;;;;;;5134930;27;20470;-41
2022/04/06 04:34:37;;;;;;;61.53;34.08;;;;;;;;;;5135088;27;20355;-43
2022/04/06 04:37:03;;;;;;;54.28;28.42;;;;;;;;;;5134976;27;20011;-40
2022/04/06 04:39:29;;;;;;;55.85;27.40;;;;;;;;;;5134634;27;20029;-40
2022/04/06 04:41:56;;;;;;;53.58;27.02;;;;;;;;;;5134650;27;20019;-41
2022/04/06 04:44:22;;;;;;;52.80;27.52;;;;;;;;;;5134470;27;20035;-40
2022/04/06 04:46:50;;;;;;;50.03;27.13;;;;;;;;;;5134544;27;20088;-41
2022/04/06 04:49:16;;;;;;;65.75;33.33;;;;;;;;;;5134460;27;20530;-41
2022/04/06 04:51:42;;;;;;;79.13;37.22;;;;;;;;;;5134337;27;20043;-41
2022/04/06 04:54:09;;;;;;;78.43;39.00;;;;;;;;;;5134449;27;20023;-41
2022/04/06 04:56:35;;;;;;;68.40;36.17;;;;;;;;;;5134467;27;20020;-43
2022/04/06 04:59:01;;;;;;;56.42;31.83;;;;;;;;;;5133602;27;20501;-41
2022/04/06 05:01:27;;;;;;;49.45;28.73;;;;;;;;;;5134767;27;20027;-42
2022/04/06 05:03:54;;;;;;;52.28;29.45;;;;;;;;;;5134219;27;20036;-43
2022/04/06 05:06:20;;;;;;;52.38;28.65;;;;;;;;;;5134449;27;20019;-41
2022/04/06 05:08:46;;;;;;;49.28;28.15;;;;;;;;;;5134593;27;20063;-41
2022/04/06 05:11:13;;;;;;;53.28;27.52;;;;;;;;;;5134238;27;20023;-41
2022/04/06 05:13:39;;;;;;;78.78;32.78;;;;;;;;;;5134476;28;20386;-41
2022/04/06 05:16:05;;;;;;;80.07;33.55;;;;;;;;;;5134226;28;20478;-41
2022/04/06 05:18:31;;;;;;;67.00;30.15;;;;;;;;;;5134290;28;20050;-42
2022/04/06 05:20:58;;;;;;;66.07;30.15;;;;;;;;;;5134258;28;20100;-43
2022/04/06 05:23:24;;;;;;;56.75;29.08;;;;;;;;;;5134235;28;20031;-48
2022/04/06 05:25:50;;;;;;;53.17;27.50;;;;;;;;;;5134234;28;20428;-42
2022/04/06 05:28:16;;;;;;;60.72;30.48;;;;;;;;;;5134317;28;20027;-42
2022/04/06 05:30:42;;;;;;;64.80;37.53;;;;;;;;;;5134404;28;20119;-42
2022/04/06 05:33:08;;;;;;;45.90;28.30;;;;;;;;;;5134426;28;20370;-51
2022/04/06 05:35:34;;;;;;;38.97;22.83;;;;;;;;;;5133959;28;20054;-42
2022/04/06 05:38:01;;;;;;;38.47;23.08;;;;;;;;;;5134086;28;20028;-46
2022/04/06 05:40:27;;;;;;;47.58;27.45;;;;;;;;;;5134565;28;20023;-43
2022/04/06 05:42:53;;;;;;;44.25;26.65;;;;;;;;;;5134186;28;20099;-42
2022/04/06 05:45:19;;;;;;;40.22;22.60;;;;;;;;;;5134271;28;20490;-42
2022/04/06 05:47:48;;;;;;;46.85;25.10;;;;;;;;;;5133898;28;20035;-42
2022/04/06 05:50:14;;;;;;;52.15;29.85;;;;;;;;;;5134068;28;20112;-42
2022/04/06 05:52:41;;;;;;;72.18;35.65;;;;;;;;;;5134417;28;20027;-43
2022/04/06 05:55:07;;;;;;;51.75;28.40;;;;;;;;;;5133871;28;20485;-42
2022/04/06 05:57:34;;;;;;;71.55;34.55;;;;;;;;;;5134055;28;20027;-42
2022/04/06 06:00:02;;;;;;;44.67;24.92;;;;;;;;;;5115443;28;20510;-42
2022/04/06 06:02:29;;;;;;;45.80;23.73;;;;;;;;;;5133936;28;20121;-42
2022/04/06 06:04:55;;;;;;;55.35;29.17;;;;;;;;;;5133671;28;20046;-41
2022/04/06 06:07:21;;;;;;;49.05;27.25;;;;;;;;;;5134076;28;20023;-43
2022/04/06 06:09:47;;;;;;;58.22;28.80;;;;;;;;;;5135892;27;20024;-41
2022/04/06 06:12:14;;;;;;;56.30;30.30;;;;;;;;;;5137557;27;20023;-41
2022/04/06 06:14:40;;;;;;;66.90;33.67;;;;;;;;;;5137380;27;20043;-43
2022/04/06 06:17:06;;;;;;;61.00;30.10;;;;;;;;;;5137566;27;20033;-43
2022/04/06 06:19:32;;;;;;;46.22;25.92;;;;;;;;;;5137495;27;20514;-43
2022/04/06 06:21:58;;;;;;;42.92;24.20;;;;;;;;;;5137362;27;20371;-43
2022/04/06 06:24:24;;;;;;;41.50;23.63;;;;;;;;;;5137307;27;20083;-43
2022/04/06 06:26:51;;;;;;;73.07;37.65;;;;;;;;;;5137275;27;20518;-43
2022/04/06 06:29:17;;;;;;;63.20;33.15;;;;;;;;;;5137088;27;20023;-43
2022/04/06 06:31:43;;;;;;;52.70;25.42;;;;;;;;;;5137357;27;20384;-43
2022/04/06 06:34:09;;;;;;;58.88;31.33;;;;;;;;;;5137349;27;20023;-42
2022/04/06 06:36:35;;;;;;;33.08;20.70;;;;;;;;;;5137241;27;20034;-42
2022/04/06 06:39:05;;;;;;;53.55;28.23;;;;;;;;;;5137081;27;20027;-43
2022/04/06 06:41:31;;;;;;;68.30;33.25;;;;;;;;;;5136990;27;20011;-43
2022/04/06 06:43:58;;;;;;;49.97;26.52;;;;;;;;;;5136894;27;20114;-42
2022/04/06 06:46:24;;;;;;;64.32;35.38;;;;;;;;;;5137256;27;20020;-43
2022/04/06 06:48:51;;;;;;;62.08;29.55;;;;;;;;;;5136932;27;20027;-43
2022/04/06 06:51:17;;;;;;;46.50;26.95;;;;;;;;;;5136488;27;20546;-44
2022/04/06 06:53:46;;;;;;;48.83;26.45;;;;;;;;;;5136734;27;20506;-43
2022/04/06 06:56:14;;;;;;;46.97;24.20;;;;;;;;;;5136950;27;20482;-45
2022/04/06 06:58:40;;;;;;;43.45;25.38;;;;;;;;;;5136868;27;20023;-45
2022/04/06 07:01:06;;;;;;;35.65;18.60;;;;;;;;;;5136683;27;20470;-44
2022/04/06 07:03:32;;;;;;;31.77;19.33;;;;;;;;;;5136637;27;20031;-44
2022/04/06 07:05:58;;;;;;;44.30;23.77;;;;;;;;;;5136707;27;20023;-44
2022/04/06 07:08:24;;;;;;;50.00;26.98;;;;;;;;;;5136669;27;20402;-44
2022/04/06 07:10:50;;;;;;;26.92;14.60;;;;;;;;;;5136400;27;20015;-45
2022/04/06 07:13:16;;;;;;;17.65;9.13;;;;;;;;;;5136467;27;20027;-44
2022/04/06 07:15:43;;;;;;;18.63;10.75;;;;;;;;;;5136265;27;20019;-43
2022/04/06 07:18:10;;;;;;;12.98;8.20;;;;;;;;;;5136639;27;20530;-44
2022/04/06 07:20:36;;;;;;;14.13;8.18;;;;;;;;;;5135686;27;20031;-42
2022/04/06 07:23:05;;;;;;;10.18;6.03;;;;;;;;;;5136199;27;20156;-48
2022/04/06 07:25:31;;;;;;;14.60;8.02;;;;;;;;;;5136149;27;20054;-44
2022/04/06 07:27:57;;;;;;;12.25;7.05;;;;;;;;;;5136416;27;20027;-43
2022/04/06 07:30:23;;;;;;;6.75;4.40;;;;;;;;;;5135995;27;20106;-43
2022/04/06 07:32:50;;;;;;;14.90;7.50;;;;;;;;;;5136239;27;20034;-42
2022/04/06 07:35:19;;;;;;;5.43;3.78;;;;;;;;;;5136044;27;20106;-42
2022/04/06 07:37:50;;;;;;;9.25;6.07;;;;;;;;;;5136107;27;20046;-43
2022/04/06 07:40:20;;;;;;;6.68;4.82;;;;;;;;;;5135854;27;20106;-43
2022/04/06 07:42:46;;;;;;;16.08;8.57;;;;;;;;;;5135805;27;20095;-44
2022/04/06 07:45:19;;;;;;;21.60;8.73;;;;;;;;;;5136158;27;20382;-43
2022/04/06 07:47:51;;;;;;;18.40;10.93;;;;;;;;;;5135500;27;20015;-43
2022/04/06 07:50:18;;;;;;;21.75;10.18;;;;;;;;;;5135462;27;20069;-42
2022/04/06 07:52:44;;;;;;;38.83;19.25;;;;;;;;;;5135673;27;20019;-43
2022/04/06 07:55:11;;;;;;;22.67;13.63;;;;;;;;;;5135464;27;20066;-43
2022/04/06 07:57:38;;;;;;;15.80;9.32;;;;;;;;;;5135610;27;20031;-44
2022/04/06 08:00:08;;;;;;;23.85;11.75;;;;;;;;;;5135590;27;20046;-42
2022/04/06 08:02:34;;;;;;;25.97;12.93;;;;;;;;;;5135649;27;20138;-44
2022/04/06 08:05:00;;;;;;;16.13;9.68;;;;;;;;;;5135397;27;20333;-43
2022/04/06 08:07:26;;;;;;;12.98;7.05;;;;;;;;;;5135169;27;20079;-43
2022/04/06 08:09:53;;;;;;;16.70;8.07;;;;;;;;;;5135156;27;20386;-44
2022/04/06 08:12:19;;;;;;;14.23;8.70;;;;;;;;;;5135325;27;20110;-43
2022/04/06 08:14:47;;;;;;;11.82;6.85;;;;;;;;;;5135061;27;20462;-42
2022/04/06 08:17:13;;;;;;;9.02;5.50;;;;;;;;;;5135290;27;20156;-43
2022/04/06 08:19:39;;;;;;;10.25;5.78;;;;;;;;;;5135219;27;20030;-44
2022/04/06 08:22:07;;;;;;;10.32;6.72;;;;;;;;;;5134948;27;20118;-44
2022/04/06 08:24:34;;;;;;;10.60;6.45;;;;;;;;;;5134721;27;20057;-43
2022/04/06 08:27:00;;;;;;;10.30;5.40;;;;;;;;;;5135107;27;20028;-44
2022/04/06 08:29:26;;;;;;;6.28;4.10;;;;;;;;;;5134696;27;20110;-44
2022/04/06 08:31:53;;;;;;;7.55;4.47;;;;;;;;;;5134408;27;20020;-45
2022/04/06 08:34:19;;;;;;;5.57;3.72;;;;;;;;;;5134154;27;20110;-43
2022/04/06 08:36:45;;;;;;;7.00;4.18;;;;;;;;;;5134813;27;20539;-43
2022/04/06 08:39:14;;;;;;;9.85;5.78;;;;;;;;;;5134780;27;20109;-42
2022/04/06 08:41:40;;;;;;;12.63;6.05;;;;;;;;;;5134667;27;20054;-42
2022/04/06 08:44:07;;;;;;;5.82;4.03;;;;;;;;;;5134545;27;20471;-42
2022/04/06 08:46:38;;;;;;;12.43;6.93;;;;;;;;;;5116114;27;20470;-42
2022/04/06 08:49:04;;;;;;;8.93;4.25;;;;;;;;;;5134501;27;20035;-42
2022/04/06 08:51:32;;;;;;;9.23;4.43;;;;;;;;;;5134343;27;20063;-47
2022/04/06 08:53:58;;;;;;;4.63;2.92;;;;;;;;;;5134652;27;20035;-43
2022/04/06 08:56:24;;;;;;;4.07;2.67;;;;;;;;;;5134515;27;20068;-43
2022/04/06 08:58:50;;;;;;;8.38;5.50;;;;;;;;;;5134534;27;20031;-43
2022/04/06 09:01:18;;;;;;;10.02;4.63;;;;;;;;;;5134412;27;20019;-43
2022/04/06 09:03:46;;;;;;;5.63;2.40;;;;;;;;;;5134331;27;20054;-43
2022/04/06 09:06:12;;;;;;;3.30;2.17;;;;;;;;;;5134473;27;20015;-43
2022/04/06 09:08:40;;;;;;;5.55;3.15;;;;;;;;;;5134264;27;20023;-44
2022/04/06 09:11:13;;;;;;;6.00;3.75;;;;;;;;;;5134255;27;20015;-43
2022/04/06 09:13:41;;;;;;;8.13;4.35;;;;;;;;;;5134425;27;20087;-44
2022/04/06 09:16:08;;;;;;;5.50;3.33;;;;;;;;;;5133922;28;20058;-44
2022/04/06 09:18:40;;;;;;;4.93;3.15;;;;;;;;;;5115547;28;20050;-45
2022/04/06 09:21:06;;;;;;;3.83;2.80;;;;;;;;;;5127974;28;20055;-47
2022/04/06 09:23:33;;;;;;;5.63;3.00;;;;;;;;;;5112078;28;20493;-46
2022/04/06 09:26:06;;;;;;;6.10;3.15;;;;;;;;;;5112456;28;20020;-45
2022/04/06 09:28:33;;;;;;;4.38;2.75;;;;;;;;;;5112360;28;20372;-45
2022/04/06 09:30:59;;;;;;;4.43;3.08;;;;;;;;;;5111976;28;20023;-46
2022/04/06 09:33:28;;;;;;;4.07;2.83;;;;;;;;;;5112195;28;20015;-43
2022/04/06 09:35:58;;;;;;;3.80;2.58;;;;;;;;;;5112643;28;20074;-45
2022/04/06 09:38:31;;;;;;;5.28;3.00;;;;;;;;;;5111638;28;20371;-43
2022/04/06 09:41:09;;;;;;;4.88;3.40;;;;;;;;;;5111856;28;20522;-45
2022/04/06 09:43:36;;;;;;;3.75;2.50;;;;;;;;;;5109055;28;20078;-43
2022/04/06 09:49:09;;;;;;;4.68;2.65;;;;;;;;;;5087687;27;20225;-46
2022/04/06 09:51:38;;;;;;;6.80;4.05;;;;;;;;;;5085673;28;20043;-46
2022/04/06 09:54:10;;;;;;;5.65;2.60;;;;;;;;;;5085849;27;20023;-44
2022/04/06 09:56:39;;;;;;;10.40;6.03;;;;;;;;;;5085687;27;20027;-48
2022/04/06 09:59:06;;;;;;;6.80;2.78;;;;;;;;;;5087085;27;20114;-45
2022/04/06 10:01:33;;;;;;;8.55;3.22;;;;;;;;;;5085875;28;20019;-46
2022/04/06 10:04:02;;;;;;;7.25;4.35;;;;;;;;;;5085906;27;20028;-45
2022/04/06 10:06:30;;;;;;;7.35;3.15;;;;;;;;;;5085759;27;20502;-44
2022/04/06 10:08:58;;;;;;;9.13;4.43;;;;;;;;;;5086653;27;20084;-46
2022/04/06 10:11:25;;;;;;;4.45;2.35;;;;;;;;;;5086597;27;20033;-44
2022/04/06 10:13:54;;;;;;;4.32;2.63;;;;;;;;;;5085695;28;20379;-44
2022/04/06 10:16:20;;;;;;;7.28;3.95;;;;;;;;;;5085659;28;20485;-46
2022/04/06 10:18:47;;;;;;;4.03;1.65;;;;;;;;;;5085761;27;20027;-45
2022/04/06 10:21:20;;;;;;;9.55;2.15;;;;;;;;;;5085337;28;20437;-43
2022/04/06 10:24:04;;;;;;;7.72;2.70;;;;;;;;;;5086667;28;20051;-45
2022/04/06 10:26:54;;;;;;;7.63;2.50;;;;;;;;;;5074055;28;20391;-45
2022/04/06 10:29:20;;;;;;;6.38;2.22;;;;;;;;;;5041085;28;20293;-44
2022/04/06 10:31:47;;;;;;;3.05;1.75;;;;;;;;;;5041343;28;20055;-43
2022/04/06 10:34:19;;;;;;;3.20;1.75;;;;;;;;;;5041162;28;20355;-45
2022/04/06 10:37:02;;;;;;;11.63;6.43;;;;;;;;;;5040909;28;20082;-44
2022/04/06 10:39:28;;;;;;;7.53;2.00;;;;;;;;;;5041727;28;20414;-43
2022/04/06 10:42:19;;;;;;;2.20;1.58;;;;;;;;;;5040712;28;20047;-44
2022/04/06 10:44:45;;;;;;;3.80;2.50;;;;;;;;;;5040541;28;20064;-48
2022/04/06 10:47:14;;;;;;;6.03;1.90;;;;;;;;;;5040855;28;20098;-43
2022/04/06 10:49:41;;;;;;;3.85;1.58;;;;;;;;;;5040615;28;20428;-43
2022/04/06 10:52:22;;;;;;;4.55;1.52;;;;;;;;;;5040218;28;20032;-44
2022/04/06 10:54:49;;;;;;;2.35;1.60;;;;;;;;;;5040127;28;20067;-48
2022/04/06 10:57:17;;;;;;;4.07;2.00;;;;;;;;;;5039897;28;20044;-45
2022/04/06 10:59:43;;;;;;;3.55;2.38;;;;;;;;;;5041342;28;20067;-44
2022/04/06 11:02:36;;;;;;;1.60;1.30;;;;;;;;;;5040499;28;20026;-43
2022/04/06 11:05:02;;;;;;;3.63;1.20;;;;;;;;;;5040921;28;20423;-44
2022/04/06 11:10:22;;;;;;;2.58;1.90;;;;;;;;;;5086349;28;20680;-43
2022/04/06 11:12:58;;;;;;;10.02;3.08;;;;;;;;;;5084595;28;20406;-43
2022/04/06 11:15:32;;;;;;;2.95;1.40;;;;;;;;;;5084545;28;20058;-42
2022/04/06 11:17:58;;;;;;;3.88;1.85;;;;;;;;;;5084579;27;20035;-43
2022/04/06 11:20:30;;;;;;;1.30;1.10;;;;;;;;;;5084163;28;20032;-42
2022/04/06 11:22:58;;;;;;;3.85;1.30;;;;;;;;;;5073587;28;20028;-41
2022/04/06 11:25:28;;;;;;;3.63;1.38;;;;;;;;;;5062656;28;20446;-44
2022/04/06 11:27:55;;;;;;;5.10;2.97;;;;;;;;;;5084125;28;20024;-42
2022/04/06 11:30:23;;;;;;;6.68;3.58;;;;;;;;;;5084074;28;20140;-43
2022/04/06 11:32:52;;;;;;;5.38;1.77;;;;;;;;;;5084119;28;20456;-42
2022/04/06 11:35:20;;;;;;;5.65;3.00;;;;;;;;;;5084883;28;20445;-45
2022/04/06 11:37:50;;;;;;;3.72;1.98;;;;;;;;;;5084366;28;20024;-41
2022/04/06 11:40:17;;;;;;;5.00;2.92;;;;;;;;;;5084139;28;20020;-47
2022/04/06 11:42:47;;;;;;;5.57;1.60;;;;;;;;;;5083659;28;20020;-43
2022/04/06 11:45:21;;;;;;;4.27;1.93;;;;;;;;;;5084618;27;20075;-43
2022/04/06 11:47:52;;;;;;;3.30;2.25;;;;;;;;;;5083485;28;20635;-44
2022/04/06 11:50:18;;;;;;;3.50;2.50;;;;;;;;;;5084088;28;20162;-40
2022/04/06 11:52:45;;;;;;;3.92;2.25;;;;;;;;;;5083765;27;20506;-42
2022/04/06 11:55:13;;;;;;;8.02;1.98;;;;;;;;;;5083327;27;20115;-42
2022/04/06 11:57:43;;;;;;;5.25;2.22;;;;;;;;;;5085283;28;20043;-42
2022/04/06 12:00:11;;;;;;;7.68;2.97;;;;;;;;;;5083539;28;20476;-46
2022/04/06 12:02:47;;;;;;;1.67;1.38;;;;;;;;;;5083533;27;20024;-46
2022/04/06 12:05:16;;;;;;;5.20;2.97;;;;;;;;;;5082840;28;20408;-46
2022/04/06 12:07:42;;;;;;;7.90;3.53;;;;;;;;;;5083024;28;20382;-43
2022/04/06 12:10:08;;;;;;;5.43;1.88;;;;;;;;;;5084555;27;20046;-42
2022/04/06 12:12:37;;;;;;;4.10;1.98;;;;;;;;;;5083000;28;20102;-42
2022/04/06 12:15:05;;;;;;;3.88;1.73;;;;;;;;;;5083260;28;20028;-42
2022/04/06 12:17:32;;;;;;;6.20;3.20;;;;;;;;;;5083095;27;20115;-44
2022/04/06 12:19:58;;;;;;;6.28;4.13;;;;;;;;;;5082593;28;20079;-43
2022/04/06 12:22:27;;;;;;;6.13;2.53;;;;;;;;;;5082544;28;20147;-47
2022/04/06 12:24:54;;;;;;;2.38;1.67;;;;;;;;;;5083782;28;20048;-43
2022/04/06 12:27:30;;;;;;;3.45;1.98;;;;;;;;;;5082951;28;20432;-44
2022/04/06 12:30:12;;;;;;;6.18;2.03;;;;;;;;;;5082333;28;20554;-44
2022/04/06 12:32:42;;;;;;;4.50;2.20;;;;;;;;;;5083124;28;20027;-41
2022/04/06 12:35:18;;;;;;;3.25;1.55;;;;;;;;;;5082732;28;20020;-43
2022/04/06 12:37:44;;;;;;;7.28;2.97;;;;;;;;;;5084134;28;20130;-42
2022/04/06 12:40:10;;;;;;;6.57;1.85;;;;;;;;;;5082212;28;20020;-45
2022/04/06 12:42:37;;;;;;;4.45;2.38;;;;;;;;;;5082961;28;20561;-44
2022/04/06 12:45:06;;;;;;;2.85;1.65;;;;;;;;;;5082924;28;20502;-41
2022/04/06 12:47:32;;;;;;;5.22;2.75;;;;;;;;;;5082704;27;20035;-42
2022/04/06 12:50:13;;;;;;;2.20;1.83;;;;;;;;;;5083238;27;20047;-42
2022/04/06 12:52:40;;;;;;;5.75;2.95;;;;;;;;;;5083276;27;20020;-44
2022/04/06 12:55:07;;;;;;;3.35;2.33;;;;;;;;;;5083020;28;20032;-43
2022/04/06 12:57:37;;;;;;;3.83;1.83;;;;;;;;;;5085362;28;20023;-44
2022/04/06 13:00:03;;;;;;;8.97;2.97;;;;;;;;;;5083685;28;20024;-42
2022/04/06 13:02:32;;;;;;;8.52;3.72;;;;;;;;;;5083881;28;20020;-43
2022/04/06 13:04:59;;;;;;;4.95;2.65;;;;;;;;;;5083115;28;20036;-45
2022/04/06 13:07:26;;;;;;;8.95;2.05;;;;;;;;;;5084389;28;20069;-42
2022/04/06 13:09:53;;;;;;;13.25;8.45;;;;;;;;;;5082782;28;20297;-46
2022/04/06 13:12:20;;;;;;;13.15;6.50;;;;;;;;;;5082836;28;20031;-42
2022/04/06 13:14:46;;;;;;;14.82;9.23;;;;;;;;;;5082668;28;20541;-43
2022/04/06 13:17:12;;;;;;;10.18;4.85;;;;;;;;;;5083961;28;20074;-42
2022/04/06 13:19:38;;;;;;;4.68;2.03;;;;;;;;;;5086838;27;20028;-43
2022/04/06 13:22:08;;;;;;;3.92;2.40;;;;;;;;;;5090222;27;20020;-43
2022/04/06 13:24:34;;;;;;;5.55;2.40;;;;;;;;;;5089206;27;20223;-43
2022/04/06 13:27:01;;;;;;;8.88;3.50;;;;;;;;;;5089068;27;20020;-43
2022/04/06 13:29:27;;;;;;;5.68;1.70;;;;;;;;;;5089101;27;20024;-46
2022/04/06 13:31:53;;;;;;;5.90;3.10;;;;;;;;;;5089006;27;20521;-43
2022/04/06 13:34:20;;;;;;;4.45;2.72;;;;;;;;;;5090547;27;20643;-46
2022/04/06 13:36:50;;;;;;;7.20;4.82;;;;;;;;;;5090424;27;20024;-41
2022/04/06 13:39:16;;;;;;;3.78;1.80;;;;;;;;;;5089167;27;20124;-42
2022/04/06 13:41:42;;;;;;;5.20;1.95;;;;;;;;;;5089139;27;20028;-42
2022/04/06 13:44:11;;;;;;;3.75;2.28;;;;;;;;;;5089275;27;20043;-43
2022/04/06 13:46:38;;;;;;;7.03;4.13;;;;;;;;;;5088901;27;20035;-41
2022/04/06 13:49:04;;;;;;;5.10;2.20;;;;;;;;;;5089236;27;20055;-43
2022/04/06 13:51:31;;;;;;;12.25;6.63;;;;;;;;;;5089179;27;20043;-43
2022/04/06 13:53:58;;;;;;;5.35;2.75;;;;;;;;;;5088577;27;20605;-46
2022/04/06 13:56:24;;;;;;;7.07;4.22;;;;;;;;;;5088455;27;20024;-45
2022/04/06 13:58:50;;;;;;;2.47;1.30;;;;;;;;;;5089067;27;20040;-43
2022/04/06 14:01:16;;;;;;;6.00;2.22;;;;;;;;;;5088798;27;20020;-44
2022/04/06 14:03:42;;;;;;;2.70;1.88;;;;;;;;;;5088733;27;20047;-43
2022/04/06 14:06:08;;;;;;;2.65;2.15;;;;;;;;;;5088931;27;20298;-44
2022/04/06 14:08:34;;;;;;;5.35;2.03;;;;;;;;;;5089143;27;20027;-43
2022/04/06 14:11:01;;;;;;;4.25;1.83;;;;;;;;;;5088976;27;20537;-47
2022/04/06 14:13:30;;;;;;;4.05;2.10;;;;;;;;;;5089322;27;20074;-43
2022/04/06 14:15:56;;;;;;;8.93;2.65;;;;;;;;;;5090090;27;20031;-46
2022/04/06 14:18:22;;;;;;;2.75;2.13;;;;;;;;;;5088998;27;20042;-45
2022/04/06 14:20:49;;;;;;;3.85;1.80;;;;;;;;;;5070389;27;20035;-44
2022/04/06 14:23:17;;;;;;;6.40;2.20;;;;;;;;;;5088694;27;20020;-42
2022/04/06 14:25:43;;;;;;;5.90;2.88;;;;;;;;;;5088915;27;20423;-44
2022/04/06 14:28:10;;;;;;;3.78;2.38;;;;;;;;;;5088821;27;20428;-46
2022/04/06 14:30:36;;;;;;;4.80;2.40;;;;;;;;;;5088056;27;20054;-46
2022/04/06 14:33:02;;;;;;;3.22;2.40;;;;;;;;;;5085253;28;20043;-42
2022/04/06 14:35:29;;;;;;;5.88;2.60;;;;;;;;;;5085397;28;20437;-44
2022/04/06 14:37:55;;;;;;;3.65;2.25;;;;;;;;;;5085061;28;20034;-44
2022/04/06 14:40:21;;;;;;;3.47;2.38;;;;;;;;;;5084458;27;20023;-44